createdAt,value
2018-02-01T00:00:38.633Z,55.99
2018-02-01T00:01:38.451Z,55.9
2018-02-01T00:02:38.672Z,55.7
2018-02-01T00:03:38.687Z,55.9
2018-02-01T00:04:38.706Z,55.9
2018-02-01T00:05:38.724Z,55.99
2018-02-01T00:06:38.501Z,56.27
2018-02-01T00:07:38.759Z,55.8
2018-02-01T00:08:38.525Z,56.37
2018-02-01T00:09:38.794Z,56.09
2018-02-01T00:10:38.561Z,55.8
2018-02-01T00:11:38.579Z,56.27
2018-02-01T00:12:38.595Z,56.09
2018-02-01T00:13:38.613Z,56.09
2018-02-01T00:14:38.886Z,56.18
2018-02-01T00:15:38.919Z,55.8
2018-02-01T00:16:38.718Z,55.99
2018-02-01T00:17:38.685Z,55.9
2018-02-01T00:18:38.702Z,55.99
2018-02-01T00:19:38.971Z,55.9
2018-02-01T00:20:38.737Z,55.9
2018-02-01T00:21:38.806Z,56.18
2018-02-01T00:22:39.026Z,57.23
2018-02-01T00:23:39.043Z,57.29
2018-02-01T00:24:38.807Z,57.32
2018-02-01T00:25:39.085Z,57.42
2018-02-01T00:26:39.092Z,57.29
2018-02-01T00:27:39.115Z,58.06
2018-02-01T00:28:38.879Z,58.25
2018-02-01T00:29:39.149Z,57.87
2018-02-01T00:30:38.915Z,57.67
2018-02-01T00:31:39.239Z,57.51
2018-02-01T00:32:38.949Z,57.6
2018-02-01T00:33:38.967Z,57.32
2018-02-01T00:34:39.236Z,57.6
2018-02-01T00:35:39.001Z,57.7
2018-02-01T00:36:39.323Z,57.42
2018-02-01T00:37:39.287Z,57.6
2018-02-01T00:38:39.307Z,57.6
2018-02-01T00:39:39.320Z,57.13
2018-02-01T00:40:39.341Z,57.04
2018-02-01T00:41:39.408Z,57.32
2018-02-01T00:42:39.376Z,57.32
2018-02-01T00:43:39.393Z,57.51
2018-02-01T00:44:39.412Z,57.89
2018-02-01T00:45:39.429Z,58.06
2018-02-01T00:46:39.598Z,58.25
2018-02-01T00:47:39.462Z,58.28
2018-02-01T00:48:39.482Z,58.28
2018-02-01T00:49:39.248Z,58.65
2018-02-01T00:50:39.516Z,58.91
2018-02-01T00:51:39.280Z,58.72
2018-02-01T00:52:39.554Z,59.01
2018-02-01T00:53:39.569Z,58.91
2018-02-01T00:54:39.587Z,58.72
2018-02-01T00:55:39.605Z,58.81
2018-02-01T00:56:39.369Z,59.29
2018-02-01T00:57:39.637Z,59.1
2018-02-01T00:58:39.657Z,59.1
2018-02-01T00:59:39.678Z,58.84
2018-02-01T01:00:39.455Z,58.47
2018-02-01T01:01:39.757Z,58.47
2018-02-01T01:02:39.736Z,58.56
2018-02-01T01:03:39.747Z,58.47
2018-02-01T01:04:39.763Z,58.56
2018-02-01T01:05:39.778Z,58.65
2018-02-01T01:06:39.801Z,58.65
2018-02-01T01:07:39.812Z,59.8
2018-02-01T01:08:39.831Z,59.67
2018-02-01T01:09:39.849Z,60.05
2018-02-01T01:10:39.615Z,60.91
2018-02-01T01:11:39.631Z,61.29
2018-02-01T01:12:39.901Z,61.48
2018-02-01T01:13:39.666Z,62.05
2018-02-01T01:14:39.936Z,62.81
2018-02-01T01:15:39.703Z,63.57
2018-02-01T01:16:40.022Z,64.24
2018-02-01T01:17:40.006Z,63.73
2018-02-01T01:18:40.005Z,63.86
2018-02-01T01:19:39.768Z,64.53
2018-02-01T01:20:40.048Z,64.05
2018-02-01T01:21:40.061Z,64.72
2018-02-01T01:22:40.079Z,65.1
2018-02-01T01:23:40.090Z,65.58
2018-02-01T01:24:39.856Z,66.2
2018-02-01T01:25:40.127Z,67.25
2018-02-01T01:26:39.889Z,67.25
2018-02-01T01:27:40.159Z,67.54
2018-02-01T01:28:40.177Z,67.63
2018-02-01T01:29:39.952Z,67.54
2018-02-01T01:30:40.211Z,67.73
2018-02-01T01:31:40.229Z,68.3
2018-02-01T01:32:39.993Z,68.01
2018-02-01T01:33:40.010Z,68.3
2018-02-01T01:34:40.029Z,68.3
2018-02-01T01:35:40.046Z,68.68
2018-02-01T01:36:40.063Z,68.21
2018-02-01T01:37:40.330Z,67.82
2018-02-01T01:38:40.097Z,68.49
2018-02-01T01:39:40.368Z,68.68
2018-02-01T01:40:40.130Z,69.15
2018-02-01T01:41:40.405Z,69.06
2018-02-01T01:42:40.164Z,68.96
2018-02-01T01:43:40.434Z,69.06
2018-02-01T01:44:40.472Z,69.25
2018-02-01T01:45:40.471Z,69.54
2018-02-01T01:46:40.235Z,69.82
2018-02-01T01:47:40.501Z,69.92
2018-02-01T01:48:40.521Z,69.82
2018-02-01T01:49:40.333Z,70.1
2018-02-01T01:50:40.299Z,69.54
2018-02-01T01:51:40.572Z,69.92
2018-02-01T01:52:40.585Z,70.01
2018-02-01T01:53:40.352Z,69.63
2018-02-01T01:54:40.640Z,70.01
2018-02-01T01:55:40.386Z,70.1
2018-02-01T01:56:40.665Z,69.38
2018-02-01T01:57:40.671Z,69.38
2018-02-01T01:58:40.436Z,70.01
2018-02-01T01:59:40.453Z,69.35
2018-02-01T02:00:40.725Z,69.82
2018-02-01T02:01:40.488Z,70.68
2018-02-01T02:02:40.758Z,71.15
2018-02-01T02:03:40.519Z,71.44
2018-02-01T02:04:40.589Z,71.44
2018-02-01T02:05:40.806Z,71.53
2018-02-01T02:06:40.573Z,71.63
2018-02-01T02:07:40.841Z,70.77
2018-02-01T02:08:40.614Z,70.58
2018-02-01T02:09:40.623Z,70.97
2018-02-01T02:10:40.891Z,70.49
2018-02-01T02:11:40.657Z,71.34
2018-02-01T02:12:40.674Z,71.15
2018-02-01T02:13:40.948Z,70.68
2018-02-01T02:14:40.708Z,70.68
2018-02-01T02:15:40.977Z,70.68
2018-02-01T02:16:40.995Z,71.63
2018-02-01T02:17:40.758Z,71.34
2018-02-01T02:18:41.032Z,70.77
2018-02-01T02:19:40.794Z,71.44
2018-02-01T02:20:40.861Z,71.72
2018-02-01T02:21:40.827Z,72.01
2018-02-01T02:22:40.845Z,72.58
2018-02-01T02:23:40.860Z,72.77
2018-02-01T02:24:40.878Z,72.49
2018-02-01T02:25:40.894Z,73.06
2018-02-01T02:26:40.913Z,73.34
2018-02-01T02:27:41.185Z,73.25
2018-02-01T02:28:41.198Z,73.63
2018-02-01T02:29:41.212Z,73.34
2018-02-01T02:30:41.231Z,74.1
2018-02-01T02:31:41.249Z,74.87
2018-02-01T02:32:41.266Z,75.34
2018-02-01T02:33:41.282Z,76.01
2018-02-01T02:34:41.299Z,76.48
2018-02-01T02:35:41.116Z,77.34
2018-02-01T02:36:41.338Z,77.15
2018-02-01T02:37:41.101Z,77.11
2018-02-01T02:38:41.368Z,77.62
2018-02-01T02:39:41.390Z,77.62
2018-02-01T02:40:41.150Z,77.72
2018-02-01T02:41:41.417Z,77.91
2018-02-01T02:42:41.435Z,77.15
2018-02-01T02:43:41.464Z,77.91
2018-02-01T02:44:41.219Z,77.81
2018-02-01T02:45:41.232Z,77.91
2018-02-01T02:46:41.501Z,78.1
2018-02-01T02:47:41.518Z,78
2018-02-01T02:48:41.283Z,77.53
2018-02-01T02:49:41.302Z,77.53
2018-02-01T02:50:41.629Z,78.19
2018-02-01T02:51:41.588Z,77.34
2018-02-01T02:52:41.610Z,77.62
2018-02-01T02:53:41.371Z,78.1
2018-02-01T02:54:41.636Z,77.81
2018-02-01T02:55:41.664Z,78.29
2018-02-01T02:56:41.673Z,78.19
2018-02-01T02:57:41.689Z,78.1
2018-02-01T02:58:41.708Z,77.62
2018-02-01T02:59:41.722Z,77.53
2018-02-01T03:00:41.753Z,77.62
2018-02-01T03:01:41.757Z,77.81
2018-02-01T03:02:41.775Z,78.57
2018-02-01T03:03:41.790Z,78.48
2018-02-01T03:04:41.808Z,78.86
2018-02-01T03:05:41.621Z,78.57
2018-02-01T03:06:41.616Z,78.67
2018-02-01T03:07:41.605Z,78.86
2018-02-01T03:08:41.623Z,78.48
2018-02-01T03:09:41.891Z,78.48
2018-02-01T03:10:41.707Z,78.48
2018-02-01T03:11:41.925Z,78.86
2018-02-01T03:12:41.943Z,78.57
2018-02-01T03:13:41.958Z,78.48
2018-02-01T03:14:41.973Z,79.05
2018-02-01T03:15:41.741Z,79.11
2018-02-01T03:16:41.760Z,79.49
2018-02-01T03:17:41.772Z,79.86
2018-02-01T03:18:41.791Z,79.77
2018-02-01T03:19:41.810Z,80.44
2018-02-01T03:20:42.128Z,80.53
2018-02-01T03:21:41.840Z,80.53
2018-02-01T03:22:42.108Z,80.91
2018-02-01T03:23:42.126Z,81.38
2018-02-01T03:24:42.140Z,80.72
2018-02-01T03:25:42.163Z,79.86
2018-02-01T03:26:41.924Z,81.1
2018-02-01T03:27:42.190Z,80.44
2018-02-01T03:28:42.210Z,81.01
2018-02-01T03:29:42.226Z,80.72
2018-02-01T03:30:41.990Z,81.2
2018-02-01T03:31:42.009Z,80.82
2018-02-01T03:32:42.273Z,80.63
2018-02-01T03:33:42.293Z,81.01
2018-02-01T03:34:42.311Z,80.44
2018-02-01T03:35:42.324Z,79.86
2018-02-01T03:36:42.390Z,79.96
2018-02-01T03:37:42.104Z,79.3
2018-02-01T03:38:42.122Z,79.68
2018-02-01T03:39:42.137Z,79.96
2018-02-01T03:40:42.406Z,79.58
2018-02-01T03:41:42.172Z,79.2
2018-02-01T03:42:42.442Z,78.63
2018-02-01T03:43:42.205Z,78.63
2018-02-01T03:44:42.221Z,78.82
2018-02-01T03:45:42.488Z,79.58
2018-02-01T03:46:42.255Z,78.53
2018-02-01T03:47:42.270Z,78.63
2018-02-01T03:48:42.539Z,78.53
2018-02-01T03:49:42.554Z,78.82
2018-02-01T03:50:42.572Z,78.44
2018-02-01T03:51:42.386Z,78.44
2018-02-01T03:52:42.612Z,78.16
2018-02-01T03:53:42.623Z,78.82
2018-02-01T03:54:42.388Z,78.25
2018-02-01T03:55:42.403Z,77.87
2018-02-01T03:56:42.469Z,77.77
2018-02-01T03:57:42.691Z,78.16
2018-02-01T03:58:42.712Z,78.44
2018-02-01T03:59:42.737Z,77.97
2018-02-01T04:00:42.486Z,77.58
2018-02-01T04:01:42.779Z,77.68
2018-02-01T04:02:42.772Z,78.44
2018-02-01T04:03:42.534Z,77.77
2018-02-01T04:04:42.809Z,77.97
2018-02-01T04:05:42.819Z,77.97
2018-02-01T04:06:42.634Z,77.39
2018-02-01T04:07:42.603Z,78.16
2018-02-01T04:08:42.618Z,77.87
2018-02-01T04:09:42.886Z,78.06
2018-02-01T04:10:42.902Z,77.87
2018-02-01T04:11:42.667Z,78.16
2018-02-01T04:12:42.933Z,77.92
2018-02-01T04:13:42.952Z,78.5
2018-02-01T04:14:42.715Z,77.77
2018-02-01T04:15:42.989Z,78.34
2018-02-01T04:16:42.747Z,78.16
2018-02-01T04:17:43.018Z,77.92
2018-02-01T04:18:42.779Z,78.06
2018-02-01T04:19:42.795Z,78.44
2018-02-01T04:20:43.063Z,78.02
2018-02-01T04:21:43.129Z,78.59
2018-02-01T04:22:42.847Z,78.5
2018-02-01T04:23:43.113Z,78.78
2018-02-01T04:24:43.129Z,79.63
2018-02-01T04:25:43.151Z,79.06
2018-02-01T04:26:42.911Z,79.44
2018-02-01T04:27:43.178Z,79.54
2018-02-01T04:28:43.196Z,79.54
2018-02-01T04:29:42.958Z,79.25
2018-02-01T04:30:43.230Z,79.06
2018-02-01T04:31:43.248Z,79.35
2018-02-01T04:32:43.014Z,78.5
2018-02-01T04:33:43.273Z,78.34
2018-02-01T04:34:43.039Z,78.3
2018-02-01T04:35:43.055Z,79.63
2018-02-01T04:36:43.069Z,78.78
2018-02-01T04:37:43.392Z,78.97
2018-02-01T04:38:43.103Z,79.16
2018-02-01T04:39:43.120Z,78.97
2018-02-01T04:40:43.139Z,79.44
2018-02-01T04:41:43.154Z,79.35
2018-02-01T04:42:43.169Z,79.16
2018-02-01T04:43:43.184Z,79.35
2018-02-01T04:44:43.200Z,79.16
2018-02-01T04:45:43.216Z,79.54
2018-02-01T04:46:43.232Z,79.25
2018-02-01T04:47:43.298Z,79.54
2018-02-01T04:48:43.514Z,79.54
2018-02-01T04:49:43.295Z,79.54
2018-02-01T04:50:43.550Z,79.44
2018-02-01T04:51:43.310Z,79.16
2018-02-01T04:52:43.630Z,79.63
2018-02-01T04:53:43.595Z,79.83
2018-02-01T04:54:43.359Z,80.11
2018-02-01T04:55:43.374Z,80.4
2018-02-01T04:56:43.647Z,80.68
2018-02-01T04:57:43.666Z,80.49
2018-02-01T04:58:43.680Z,80.3
2018-02-01T04:59:43.692Z,80.68
2018-02-01T05:00:43.707Z,80.49
2018-02-01T05:01:43.471Z,79.54
2018-02-01T05:02:43.741Z,79.83
2018-02-01T05:03:43.757Z,79.63
2018-02-01T05:04:43.774Z,79.63
2018-02-01T05:05:43.537Z,79.92
2018-02-01T05:06:43.803Z,79.83
2018-02-01T05:07:43.870Z,80.02
2018-02-01T05:08:43.835Z,79.83
2018-02-01T05:09:43.600Z,80.58
2018-02-01T05:10:43.866Z,80.68
2018-02-01T05:11:43.885Z,80.58
2018-02-01T05:12:43.900Z,80.11
2018-02-01T05:13:43.667Z,79.63
2018-02-01T05:14:43.680Z,79.83
2018-02-01T05:15:43.696Z,79.73
2018-02-01T05:16:43.967Z,80.4
2018-02-01T05:17:43.981Z,80.4
2018-02-01T05:18:43.744Z,81.06
2018-02-01T05:19:44.015Z,80.68
2018-02-01T05:20:44.029Z,80.77
2018-02-01T05:21:44.043Z,80.96
2018-02-01T05:22:44.112Z,80.96
2018-02-01T05:23:44.077Z,81.54
2018-02-01T05:24:43.842Z,81.25
2018-02-01T05:25:43.857Z,81.44
2018-02-01T05:26:43.871Z,81.49
2018-02-01T05:27:44.136Z,82.26
2018-02-01T05:28:44.163Z,82.82
2018-02-01T05:29:44.169Z,83.11
2018-02-01T05:30:43.934Z,83.11
2018-02-01T05:31:43.954Z,84.16
2018-02-01T05:32:44.219Z,83.78
2018-02-01T05:33:44.236Z,84.63
2018-02-01T05:34:43.999Z,85.2
2018-02-01T05:35:44.349Z,85.49
2018-02-01T05:36:44.282Z,86.82
2018-02-01T05:37:44.351Z,85.86
2018-02-01T05:38:44.063Z,86.3
2018-02-01T05:39:44.332Z,85.82
2018-02-01T05:40:44.095Z,86.49
2018-02-01T05:41:44.110Z,86.53
2018-02-01T05:42:44.381Z,86.53
2018-02-01T05:43:44.392Z,86.63
2018-02-01T05:44:44.409Z,86.68
2018-02-01T05:45:44.424Z,87.05
2018-02-01T05:46:44.186Z,87.29
2018-02-01T05:47:44.506Z,87.24
2018-02-01T05:48:44.218Z,87.05
2018-02-01T05:49:44.487Z,87.19
2018-02-01T05:50:44.249Z,87.43
2018-02-01T05:51:44.516Z,87.24
2018-02-01T05:52:44.583Z,87.34
2018-02-01T05:53:44.549Z,88.01
2018-02-01T05:54:44.311Z,88.29
2018-02-01T05:55:44.577Z,88.48
2018-02-01T05:56:44.592Z,88.67
2018-02-01T05:57:44.358Z,88.57
2018-02-01T05:58:44.623Z,89.05
2018-02-01T05:59:44.640Z,88.48
2018-02-01T06:00:44.405Z,89.05
2018-02-01T06:01:44.672Z,89.14
2018-02-01T06:02:44.689Z,88.57
2018-02-01T06:03:44.700Z,88.48
2018-02-01T06:04:44.717Z,88.57
2018-02-01T06:05:44.729Z,88.29
2018-02-01T06:06:44.501Z,88.57
2018-02-01T06:07:44.661Z,88.39
2018-02-01T06:08:44.524Z,89.33
2018-02-01T06:09:44.539Z,89
2018-02-01T06:10:44.806Z,89.2
2018-02-01T06:11:44.822Z,89.2
2018-02-01T06:12:44.886Z,90.24
2018-02-01T06:13:44.602Z,89.33
2018-02-01T06:14:44.616Z,89.9
2018-02-01T06:15:44.880Z,89.29
2018-02-01T06:16:44.651Z,89.86
2018-02-01T06:17:44.915Z,89.81
2018-02-01T06:18:44.675Z,89.33
2018-02-01T06:19:44.688Z,89.72
2018-02-01T06:20:44.959Z,89.86
2018-02-01T06:21:44.720Z,89.05
2018-02-01T06:22:44.790Z,89.39
2018-02-01T06:23:44.750Z,90.05
2018-02-01T06:24:45.017Z,89.2
2018-02-01T06:25:45.041Z,89.67
2018-02-01T06:26:45.045Z,89.76
2018-02-01T06:27:44.808Z,89.86
2018-02-01T06:28:45.074Z,89.95
2018-02-01T06:29:44.840Z,89.67
2018-02-01T06:30:45.112Z,89.76
2018-02-01T06:31:45.120Z,90.05
2018-02-01T06:32:45.137Z,89.76
2018-02-01T06:33:44.899Z,89.58
2018-02-01T06:34:44.912Z,89.58
2018-02-01T06:35:45.181Z,89.39
2018-02-01T06:36:44.943Z,89
2018-02-01T06:37:45.217Z,89.1
2018-02-01T06:38:44.972Z,89.67
2018-02-01T06:39:45.403Z,89.39
2018-02-01T06:40:45.001Z,90.81
2018-02-01T06:41:45.017Z,89.58
2018-02-01T06:42:45.288Z,90.52
2018-02-01T06:43:45.300Z,89.86
2018-02-01T06:44:45.315Z,89.76
2018-02-01T06:45:45.076Z,90.05
2018-02-01T06:46:45.342Z,90.24
2018-02-01T06:47:45.357Z,90.24
2018-02-01T06:48:45.371Z,89.29
2018-02-01T06:49:45.139Z,89.67
2018-02-01T06:50:45.151Z,89.2
2018-02-01T06:51:45.164Z,89.58
2018-02-01T06:52:45.431Z,89.29
2018-02-01T06:53:45.447Z,89.86
2018-02-01T06:54:45.511Z,89.86
2018-02-01T06:55:45.485Z,90.14
2018-02-01T06:56:45.491Z,89.58
2018-02-01T06:57:45.253Z,89.58
2018-02-01T06:58:45.520Z,90.62
2018-02-01T06:59:45.284Z,89.58
2018-02-01T07:00:45.299Z,89.86
2018-02-01T07:01:45.567Z,89.2
2018-02-01T07:02:45.328Z,89.58
2018-02-01T07:03:45.595Z,89.76
2018-02-01T07:04:45.609Z,89.29
2018-02-01T07:05:45.628Z,89.67
2018-02-01T07:06:45.641Z,89.39
2018-02-01T07:07:45.666Z,89.86
2018-02-01T07:08:45.418Z,89.67
2018-02-01T07:09:45.483Z,89.48
2018-02-01T07:10:45.448Z,90.05
2018-02-01T07:11:45.758Z,90.62
2018-02-01T07:12:45.478Z,90.24
2018-02-01T07:13:45.751Z,90.43
2018-02-01T07:14:45.608Z,89.95
2018-02-01T07:15:45.784Z,89.95
2018-02-01T07:16:45.788Z,89.76
2018-02-01T07:17:45.804Z,89.29
2018-02-01T07:18:45.567Z,89.95
2018-02-01T07:19:45.582Z,89.29
2018-02-01T07:20:45.852Z,89.95
2018-02-01T07:21:45.611Z,89.86
2018-02-01T07:22:45.626Z,89.86
2018-02-01T07:23:45.894Z,89
2018-02-01T07:24:45.955Z,89.2
2018-02-01T07:25:45.923Z,89
2018-02-01T07:26:45.935Z,89.39
2018-02-01T07:27:45.952Z,89.29
2018-02-01T07:28:45.967Z,89.67
2018-02-01T07:29:45.982Z,89.67
2018-02-01T07:30:45.998Z,89.95
2018-02-01T07:31:45.759Z,90.52
2018-02-01T07:32:46.025Z,89.86
2018-02-01T07:33:45.788Z,90.43
2018-02-01T07:34:46.055Z,90.05
2018-02-01T07:35:46.070Z,89.39
2018-02-01T07:36:46.089Z,89.81
2018-02-01T07:37:46.098Z,90.52
2018-02-01T07:38:46.115Z,90.71
2018-02-01T07:39:45.876Z,90.71
2018-02-01T07:40:46.192Z,90.71
2018-02-01T07:41:45.905Z,90.43
2018-02-01T07:42:45.920Z,90.71
2018-02-01T07:43:45.932Z,90.52
2018-02-01T07:44:45.949Z,90.43
2018-02-01T07:45:46.318Z,90.52
2018-02-01T07:46:45.982Z,90.9
2018-02-01T07:47:45.992Z,89.95
2018-02-01T07:48:46.258Z,90.05
2018-02-01T07:49:46.275Z,89.95
2018-02-01T07:50:46.285Z,90.52
2018-02-01T07:51:46.054Z,90.24
2018-02-01T07:52:46.065Z,89.95
2018-02-01T07:53:46.332Z,90.52
2018-02-01T07:54:46.093Z,90.05
2018-02-01T07:55:46.409Z,90.24
2018-02-01T07:56:46.124Z,89.95
2018-02-01T07:57:46.139Z,90.05
2018-02-01T07:58:46.410Z,90.29
2018-02-01T07:59:46.419Z,90.67
2018-02-01T08:00:46.436Z,90.76
2018-02-01T08:01:46.194Z,90.86
2018-02-01T08:02:46.210Z,91.42
2018-02-01T08:03:46.223Z,91.38
2018-02-01T08:04:46.491Z,90.52
2018-02-01T08:05:46.304Z,91.28
2018-02-01T08:06:46.521Z,90.81
2018-02-01T08:07:46.536Z,90.62
2018-02-01T08:08:46.547Z,90.33
2018-02-01T08:09:46.564Z,90.24
2018-02-01T08:10:46.628Z,90.71
2018-02-01T08:11:46.594Z,90.43
2018-02-01T08:12:46.608Z,90.05
2018-02-01T08:13:46.623Z,90.71
2018-02-01T08:14:46.387Z,90.71
2018-02-01T08:15:46.399Z,90.52
2018-02-01T08:16:46.667Z,91.19
2018-02-01T08:17:46.430Z,90.9
2018-02-01T08:18:46.694Z,90.05
2018-02-01T08:19:46.714Z,89.95
2018-02-01T08:20:46.726Z,90.05
2018-02-01T08:21:46.486Z,90.43
2018-02-01T08:22:46.758Z,91
2018-02-01T08:23:46.517Z,90.05
2018-02-01T08:24:46.784Z,90.52
2018-02-01T08:25:46.596Z,89.67
2018-02-01T08:26:46.560Z,89.39
2018-02-01T08:27:46.577Z,89.86
2018-02-01T08:28:46.838Z,90.67
2018-02-01T08:29:46.605Z,90.62
2018-02-01T08:30:46.923Z,90.67
2018-02-01T08:31:46.635Z,90.67
2018-02-01T08:32:46.650Z,91.24
2018-02-01T08:33:46.678Z,91.28
2018-02-01T08:34:46.940Z,91.28
2018-02-01T08:35:47.021Z,90.71
2018-02-01T08:36:46.963Z,90.52
2018-02-01T08:37:47.027Z,91.47
2018-02-01T08:38:46.986Z,91.19
2018-02-01T08:39:47.007Z,90.52
2018-02-01T08:40:47.066Z,90.33
2018-02-01T08:41:46.778Z,90.43
2018-02-01T08:42:47.044Z,90.33
2018-02-01T08:43:47.060Z,91.47
2018-02-01T08:44:46.826Z,90.33
2018-02-01T08:45:47.138Z,90.48
2018-02-01T08:46:46.850Z,90.71
2018-02-01T08:47:47.123Z,90.24
2018-02-01T08:48:46.880Z,90.43
2018-02-01T08:49:47.150Z,90.24
2018-02-01T08:50:47.159Z,90.81
2018-02-01T08:51:47.176Z,90.24
2018-02-01T08:52:46.936Z,90.71
2018-02-01T08:53:46.953Z,91.19
2018-02-01T08:54:46.969Z,90.43
2018-02-01T08:55:47.285Z,90.48
2018-02-01T08:56:47.273Z,91.33
2018-02-01T08:57:47.270Z,91.42
2018-02-01T08:58:47.277Z,91.24
2018-02-01T08:59:47.038Z,90.86
2018-02-01T09:00:47.052Z,91.56
2018-02-01T09:01:47.066Z,91.19
2018-02-01T09:02:47.340Z,91.28
2018-02-01T09:03:47.355Z,91.24
2018-02-01T09:04:47.131Z,90.95
2018-02-01T09:05:47.376Z,90.86
2018-02-01T09:06:47.392Z,91.9
2018-02-01T09:07:47.152Z,90.95
2018-02-01T09:08:47.168Z,91.05
2018-02-01T09:09:47.433Z,91.33
2018-02-01T09:10:47.754Z,91.24
2018-02-01T09:11:47.211Z,91.94
2018-02-01T09:12:47.477Z,91.42
2018-02-01T09:13:47.503Z,90.76
2018-02-01T09:14:47.503Z,91.05
2018-02-01T09:15:47.518Z,91.05
2018-02-01T09:16:47.284Z,91.71
2018-02-01T09:17:47.552Z,91.52
2018-02-01T09:18:47.310Z,91.05
2018-02-01T09:19:47.660Z,91.42
2018-02-01T09:20:47.593Z,91.9
2018-02-01T09:21:47.657Z,91.8
2018-02-01T09:22:47.366Z,91.71
2018-02-01T09:23:47.631Z,91.61
2018-02-01T09:24:47.649Z,91.8
2018-02-01T09:25:47.659Z,91.33
2018-02-01T09:26:47.973Z,91.24
2018-02-01T09:27:47.437Z,91.61
2018-02-01T09:28:47.450Z,91.76
2018-02-01T09:29:47.717Z,91.47
2018-02-01T09:30:47.730Z,92.04
2018-02-01T09:31:47.494Z,92.52
2018-02-01T09:32:47.506Z,92.33
2018-02-01T09:33:47.521Z,92.33
2018-02-01T09:34:47.785Z,91.47
2018-02-01T09:35:47.547Z,91.76
2018-02-01T09:36:47.559Z,92.33
2018-02-01T09:37:47.824Z,92.42
2018-02-01T09:38:47.842Z,91.95
2018-02-01T09:39:47.850Z,92.04
2018-02-01T09:40:47.614Z,92.04
2018-02-01T09:41:47.680Z,92.14
2018-02-01T09:42:47.919Z,91.95
2018-02-01T09:43:47.912Z,92.33
2018-02-01T09:44:47.914Z,92.42
2018-02-01T09:45:47.938Z,92.33
2018-02-01T09:46:47.946Z,92.14
2018-02-01T09:47:47.958Z,92.04
2018-02-01T09:48:47.976Z,92.23
2018-02-01T09:49:47.738Z,92.8
2018-02-01T09:50:48.005Z,92.52
2018-02-01T09:51:48.015Z,93.08
2018-02-01T09:52:48.030Z,92.04
2018-02-01T09:53:48.050Z,92.04
2018-02-01T09:54:48.058Z,91.85
2018-02-01T09:55:48.072Z,92.61
2018-02-01T09:56:48.133Z,92.99
2018-02-01T09:57:47.848Z,92.71
2018-02-01T09:58:48.113Z,92.33
2018-02-01T09:59:47.874Z,92.04
2018-02-01T10:00:47.890Z,91.85
2018-02-01T10:01:48.169Z,92.99
2018-02-01T10:02:48.166Z,91.95
2018-02-01T10:03:48.182Z,92.04
2018-02-01T10:04:48.245Z,92.61
2018-02-01T10:05:48.207Z,91.85
2018-02-01T10:06:47.968Z,92.23
2018-02-01T10:07:48.233Z,91.57
2018-02-01T10:08:48.248Z,92.04
2018-02-01T10:09:48.264Z,92.04
2018-02-01T10:10:48.024Z,92.33
2018-02-01T10:11:48.044Z,92.14
2018-02-01T10:12:48.303Z,92.14
2018-02-01T10:13:48.062Z,91.95
2018-02-01T10:14:48.379Z,92.14
2018-02-01T10:15:48.344Z,91.85
2018-02-01T10:16:48.353Z,92.14
2018-02-01T10:17:48.369Z,92.23
2018-02-01T10:18:48.402Z,91.76
2018-02-01T10:19:48.396Z,92.23
2018-02-01T10:20:48.156Z,91.57
2018-02-01T10:21:48.422Z,91.66
2018-02-01T10:22:48.184Z,91.76
2018-02-01T10:23:48.449Z,91.57
2018-02-01T10:24:48.213Z,91.8
2018-02-01T10:25:48.476Z,91.38
2018-02-01T10:26:48.491Z,91.38
2018-02-01T10:27:48.504Z,92.14
2018-02-01T10:28:48.517Z,91.9
2018-02-01T10:29:48.582Z,91.61
2018-02-01T10:30:48.294Z,91.61
2018-02-01T10:31:48.558Z,91.61
2018-02-01T10:32:48.577Z,91.19
2018-02-01T10:33:48.342Z,90.62
2018-02-01T10:34:48.401Z,90.72
2018-02-01T10:35:48.661Z,91.38
2018-02-01T10:36:48.628Z,91.09
2018-02-01T10:37:48.650Z,91.19
2018-02-01T10:38:48.420Z,91.19
2018-02-01T10:39:48.723Z,91.19
2018-02-01T10:40:48.682Z,90.72
2018-02-01T10:41:48.698Z,91.47
2018-02-01T10:42:48.457Z,91.38
2018-02-01T10:43:48.471Z,91.09
2018-02-01T10:44:48.787Z,91.38
2018-02-01T10:45:48.514Z,91.09
2018-02-01T10:46:48.764Z,91.52
2018-02-01T10:47:48.781Z,90.91
2018-02-01T10:48:48.790Z,90.76
2018-02-01T10:49:48.811Z,91.61
2018-02-01T10:50:48.818Z,91.05
2018-02-01T10:51:48.833Z,90.67
2018-02-01T10:52:48.594Z,91.05
2018-02-01T10:53:48.606Z,91.14
2018-02-01T10:54:48.619Z,91.24
2018-02-01T10:55:48.634Z,91.33
2018-02-01T10:56:48.899Z,91.24
2018-02-01T10:57:48.912Z,91.05
2018-02-01T10:58:48.926Z,91.61
2018-02-01T10:59:48.752Z,90.48
2018-02-01T11:00:48.703Z,90.57
2018-02-01T11:01:48.972Z,91.24
2018-02-01T11:02:48.984Z,90.86
2018-02-01T11:03:48.997Z,91.24
2018-02-01T11:04:49.012Z,91.24
2018-02-01T11:05:49.025Z,91.33
2018-02-01T11:06:48.788Z,90.76
2018-02-01T11:07:48.802Z,90.76
2018-02-01T11:08:49.066Z,90.38
2018-02-01T11:09:48.829Z,90.67
2018-02-01T11:10:48.847Z,91.14
2018-02-01T11:11:48.858Z,90.67
2018-02-01T11:12:48.871Z,91.14
2018-02-01T11:13:49.183Z,90.95
2018-02-01T11:14:49.201Z,91.71
2018-02-01T11:15:49.167Z,90.95
2018-02-01T11:16:49.183Z,90.95
2018-02-01T11:17:49.191Z,90.19
2018-02-01T11:18:49.208Z,91.05
2018-02-01T11:19:49.070Z,91.05
2018-02-01T11:20:48.984Z,91.14
2018-02-01T11:21:48.998Z,90.57
2018-02-01T11:22:49.011Z,91.33
2018-02-01T11:23:49.025Z,90.67
2018-02-01T11:24:49.293Z,91.42
2018-02-01T11:25:49.052Z,91.24
2018-02-01T11:26:49.067Z,91.05
2018-02-01T11:27:49.338Z,90.95
2018-02-01T11:28:49.093Z,91.42
2018-02-01T11:29:49.159Z,90.95
2018-02-01T11:30:49.123Z,90.86
2018-02-01T11:31:49.136Z,91.24
2018-02-01T11:32:49.153Z,91.24
2018-02-01T11:33:49.415Z,91.42
2018-02-01T11:34:49.179Z,91.42
2018-02-01T11:35:49.443Z,91.42
2018-02-01T11:36:49.206Z,91.33
2018-02-01T11:37:49.474Z,90.86
2018-02-01T11:38:49.234Z,90.76
2018-02-01T11:39:49.502Z,91.33
2018-02-01T11:40:49.515Z,91.05
2018-02-01T11:41:49.277Z,91.24
2018-02-01T11:42:49.556Z,91.33
2018-02-01T11:43:49.307Z,91.33
2018-02-01T11:44:49.852Z,91.14
2018-02-01T11:45:49.587Z,91.09
2018-02-01T11:46:49.607Z,91.24
2018-02-01T11:47:49.362Z,91.14
2018-02-01T11:48:49.629Z,90.95
2018-02-01T11:49:49.642Z,90.91
2018-02-01T11:50:49.656Z,91.8
2018-02-01T11:51:49.668Z,91.42
2018-02-01T11:52:49.431Z,91.05
2018-02-01T11:53:49.446Z,91.8
2018-02-01T11:54:49.707Z,91.9
2018-02-01T11:55:49.723Z,91.14
2018-02-01T11:56:49.483Z,91.24
2018-02-01T11:57:49.754Z,91.24
2018-02-01T11:58:49.511Z,92.09
2018-02-01T11:59:49.785Z,91.8
2018-02-01T12:00:49.790Z,91.14
2018-02-01T12:01:49.555Z,91.05
2018-02-01T12:02:49.824Z,91.61
2018-02-01T12:03:49.582Z,91.61
2018-02-01T12:04:49.846Z,91.52
2018-02-01T12:05:49.611Z,91.33
2018-02-01T12:06:49.625Z,91.42
2018-02-01T12:07:49.886Z,90.95
2018-02-01T12:08:49.976Z,91.14
2018-02-01T12:09:49.692Z,90.67
2018-02-01T12:10:49.932Z,91.14
2018-02-01T12:11:49.970Z,90.43
2018-02-01T12:12:49.710Z,90.15
2018-02-01T12:13:49.981Z,90.62
2018-02-01T12:14:49.987Z,90.43
2018-02-01T12:15:50.005Z,90.62
2018-02-01T12:16:50.016Z,90.81
2018-02-01T12:17:50.029Z,90.81
2018-02-01T12:18:49.797Z,90.72
2018-02-01T12:19:50.057Z,91.28
2018-02-01T12:20:49.818Z,91.19
2018-02-01T12:21:50.091Z,91.09
2018-02-01T12:22:50.097Z,91.28
2018-02-01T12:23:50.114Z,91.09
2018-02-01T12:24:49.876Z,91.19
2018-02-01T12:25:49.888Z,91.38
2018-02-01T12:26:50.150Z,91.47
2018-02-01T12:27:50.196Z,91.57
2018-02-01T12:28:50.204Z,91.09
2018-02-01T12:29:50.200Z,91.66
2018-02-01T12:30:49.959Z,91.66
2018-02-01T12:31:50.222Z,91.47
2018-02-01T12:32:50.238Z,91.57
2018-02-01T12:33:50.253Z,91.57
2018-02-01T12:34:50.265Z,91.09
2018-02-01T12:35:50.284Z,91.19
2018-02-01T12:36:50.298Z,92.14
2018-02-01T12:37:50.054Z,91
2018-02-01T12:38:50.351Z,91
2018-02-01T12:39:50.336Z,90.81
2018-02-01T12:40:50.097Z,90.48
2018-02-01T12:41:50.362Z,91.9
2018-02-01T12:42:50.377Z,91.05
2018-02-01T12:43:50.387Z,91.9
2018-02-01T12:44:50.152Z,91.9
2018-02-01T12:45:50.414Z,91.05
2018-02-01T12:46:50.177Z,91.24
2018-02-01T12:47:50.201Z,91.24
2018-02-01T12:48:50.456Z,91.14
2018-02-01T12:49:50.477Z,91.24
2018-02-01T12:50:50.485Z,91.9
2018-02-01T12:51:50.246Z,91.71
2018-02-01T12:52:50.514Z,91.43
2018-02-01T12:53:50.526Z,91.33
2018-02-01T12:54:50.288Z,91.05
2018-02-01T12:55:50.316Z,90.95